Atwood, Oklahoma
Current Conditions -  °F | °C
As of 11:35 PM on Wednesday 22 Oct 2014 (Local Time) from KADH Reporting Station
Overcast Overcast  
Wind Chill: 18°   Ceiling: 11000
Heat Index: 18°   Visibility: 10mi
Dew Point: 14°   Wind: 10mph
Humidity: 77%   Direction: 160°SSE
Pressure: 30.13"   Gusts: NA
Location:  34.96°N, 96.34°W
Report Text: KADH 230435Z AUTO 16009KT 10SM OVC110 18/14 A3013 RMK AO2
Loading
Personal Weather Stations






























Interactive Weather Map
Tropical Storm Tracking
New forecast layout! Learn more

10-Day Weather Forecast

Advertisements
Track Severe Weather on mobile